Pagina principale
METAR-TAF:

METAR-TAF

Aeroporti :

Aeroporto di Treviso-Sant'Angelo

Treviso, Italia

latitudine: 45-39N, longitudine: 012-11E, altezza: 18 m

Osservazione

Il bollettino è stato emesso 25 minuti fa, alle 01:50 UTC
Vento 3 kt da nord/nord-ovest, variando fra nord-ovest e nord/nord-est
Temperature 18°C
Umidità 94%
Pressione 1015 hPa
Visibilità 10 km o più

METAR: LIPH 280150Z AUTO 34003KT 320V020 9999 BKN099/// 18/17 Q1015

Ora: 04:15 (02:15 UTC)

Previsione

Il bollettino è stato emesso 3 ore e 15 minuti fa, alle 23:00 UTC
Previsione valida dal 28 alle 00 UTC al 28 alle 24 UTC
Vento 5 kt da direzioni variabili
Visibilità 10 km o più
Poco nuvoloso ad un'altezza di 4000 ft
Temporaneamente
dal 28 alle 00 UTC al 28 alle 02 UTC
temporale, pioggia
Temporaneamente
dal 28 alle 06 UTC al 28 alle 14 UTC
Visibilità: 4000 m
rovesci di pioggia,

TAF: LIPH 272300Z 2800/2824 VRB05KT 9999 FEW040 TEMPO 2800/2802 TSRA TEMPO 2806/2814 4000 SHRA

Osservazioni e previsioni meteorologiche di più di 4000 aeroporti (messaggi METAR e TAF).

Le stazioni disponibili sono rappresentate dai dischi gialli e rossi sulla carta.

Puntare il mouse per vedere il nome della stazione.

Clicca sopra per visualizzare le osservazioni e previsioni meteorologiche.

Per cambiare la mappa : fare clic sui pulsanti verdi con una croce nera per ingrandire, il pulsante verde con un trattino per diminuire, o sulla freccia verde per le mappe adiacenti.


METAR-TAF: